sensor_id;sensor_type;location;lat;lon;timestamp;temperature;humidity
25302;DHT22;13243;50.888;4.724;2023-03-01T00:02:51;0.90;99.90
25302;DHT22;13243;50.888;4.724;2023-03-01T00:07:53;1.00;99.90
25302;DHT22;13243;50.888;4.724;2023-03-01T00:12:55;0.90;99.90
25302;DHT22;13243;50.888;4.724;2023-03-01T00:17:58;0.70;99.90
25302;DHT22;13243;50.888;4.724;2023-03-01T00:22:59;0.60;99.90
25302;DHT22;13243;50.888;4.724;2023-03-01T00:28:01;0.70;99.90
25302;DHT22;13243;50.888;4.724;2023-03-01T00:33:03;0.70;99.90
25302;DHT22;13243;50.888;4.724;2023-03-01T00:38:05;0.80;99.90
25302;DHT22;13243;50.888;4.724;2023-03-01T00:43:08;0.70;99.90
25302;DHT22;13243;50.888;4.724;2023-03-01T00:48:10;0.50;99.90
25302;DHT22;13243;50.888;4.724;2023-03-01T00:53:11;0.30;99.90
25302;DHT22;13243;50.888;4.724;2023-03-01T00:58:14;0.40;99.90
25302;DHT22;13243;50.888;4.724;2023-03-01T01:03:16;0.20;99.90
25302;DHT22;13243;50.888;4.724;2023-03-01T01:08:18;0.00;99.90
25302;DHT22;13243;50.888;4.724;2023-03-01T01:13:20;0.10;99.90
25302;DHT22;13243;50.888;4.724;2023-03-01T01:18:23;0.20;99.90
25302;DHT22;13243;50.888;4.724;2023-03-01T01:23:25;0.30;99.90
25302;DHT22;13243;50.888;4.724;2023-03-01T01:28:26;0.30;99.90
25302;DHT22;13243;50.888;4.724;2023-03-01T01:33:28;0.10;99.90
25302;DHT22;13243;50.888;4.724;2023-03-01T01:38:30;0.00;99.90
25302;DHT22;13243;50.888;4.724;2023-03-01T01:43:38;0.10;99.90
25302;DHT22;13243;50.888;4.724;2023-03-01T01:48:47;-0.20;99.90
25302;DHT22;13243;50.888;4.724;2023-03-01T01:53:55;0.00;99.90
25302;DHT22;13243;50.888;4.724;2023-03-01T01:58:58;-0.40;99.90
25302;DHT22;13243;50.888;4.724;2023-03-01T02:04:00;-0.30;99.90
25302;DHT22;13243;50.888;4.724;2023-03-01T02:09:07;-0.20;99.90
25302;DHT22;13243;50.888;4.724;2023-03-01T02:14:09;-0.20;99.90
25302;DHT22;13243;50.888;4.724;2023-03-01T02:19:22;-0.20;99.90
25302;DHT22;13243;50.888;4.724;2023-03-01T02:25:05;-0.10;99.90
25302;DHT22;13243;50.888;4.724;2023-03-01T02:30:03;-0.20;99.90
25302;DHT22;13243;50.888;4.724;2023-03-01T02:35:06;-0.30;99.90
25302;DHT22;13243;50.888;4.724;2023-03-01T02:40:12;-0.20;99.90
25302;DHT22;13243;50.888;4.724;2023-03-01T02:45:15;-0.30;99.90
25302;DHT22;13243;50.888;4.724;2023-03-01T02:55:31;-0.30;99.90
25302;DHT22;13243;50.888;4.724;2023-03-01T03:00:37;-0.30;99.90
25302;DHT22;13243;50.888;4.724;2023-03-01T03:05:41;-0.30;99.90
25302;DHT22;13243;50.888;4.724;2023-03-01T03:10:43;-0.40;99.90
25302;DHT22;13243;50.888;4.724;2023-03-01T03:15:45;-0.30;99.90
25302;DHT22;13243;50.888;4.724;2023-03-01T03:20:47;-0.30;99.90
25302;DHT22;13243;50.888;4.724;2023-03-01T03:25:50;-0.30;99.90
25302;DHT22;13243;50.888;4.724;2023-03-01T03:30:52;-0.60;99.90
25302;DHT22;13243;50.888;4.724;2023-03-01T03:35:54;-0.80;99.90
25302;DHT22;13243;50.888;4.724;2023-03-01T03:41:04;-0.70;99.90
25302;DHT22;13243;50.888;4.724;2023-03-01T03:46:07;-0.70;99.90
25302;DHT22;13243;50.888;4.724;2023-03-01T03:51:14;-1.10;99.90
25302;DHT22;13243;50.888;4.724;2023-03-01T03:56:16;-0.80;99.90
25302;DHT22;13243;50.888;4.724;2023-03-01T04:01:18;-0.80;99.90
25302;DHT22;13243;50.888;4.724;2023-03-01T04:06:20;-1.00;99.90
25302;DHT22;13243;50.888;4.724;2023-03-01T04:11:22;-1.10;99.90
25302;DHT22;13243;50.888;4.724;2023-03-01T04:16:30;-1.30;99.90
25302;DHT22;13243;50.888;4.724;2023-03-01T04:21:32;-1.20;99.90
25302;DHT22;13243;50.888;4.724;2023-03-01T04:26:34;-1.20;99.90
25302;DHT22;13243;50.888;4.724;2023-03-01T04:31:36;-1.20;99.90
25302;DHT22;13243;50.888;4.724;2023-03-01T04:36:37;-1.10;99.90
25302;DHT22;13243;50.888;4.724;2023-03-01T04:41:41;-1.30;99.90
25302;DHT22;13243;50.888;4.724;2023-03-01T04:46:44;-1.30;99.90
25302;DHT22;13243;50.888;4.724;2023-03-01T04:51:46;-1.40;99.90
25302;DHT22;13243;50.888;4.724;2023-03-01T04:56:48;-1.50;99.90
25302;DHT22;13243;50.888;4.724;2023-03-01T05:01:51;-1.40;99.90
25302;DHT22;13243;50.888;4.724;2023-03-01T05:06:52;-1.30;99.90
25302;DHT22;13243;50.888;4.724;2023-03-01T05:11:55;-1.60;99.90
25302;DHT22;13243;50.888;4.724;2023-03-01T05:16:56;-1.50;99.90
25302;DHT22;13243;50.888;4.724;2023-03-01T05:22:05;-1.60;99.90
25302;DHT22;13243;50.888;4.724;2023-03-01T05:27:07;-1.60;99.90
25302;DHT22;13243;50.888;4.724;2023-03-01T05:32:09;-1.40;99.90
25302;DHT22;13243;50.888;4.724;2023-03-01T05:37:16;-1.50;99.90
25302;DHT22;13243;50.888;4.724;2023-03-01T05:42:18;-1.60;99.90
25302;DHT22;13243;50.888;4.724;2023-03-01T05:47:20;-1.80;99.90
25302;DHT22;13243;50.888;4.724;2023-03-01T05:52:22;-1.70;99.90
25302;DHT22;13243;50.888;4.724;2023-03-01T05:57:24;-1.90;99.90
25302;DHT22;13243;50.888;4.724;2023-03-01T06:02:27;-1.90;99.90
25302;DHT22;13243;50.888;4.724;2023-03-01T06:07:29;-1.90;99.90
25302;DHT22;13243;50.888;4.724;2023-03-01T06:12:35;-2.00;99.90
25302;DHT22;13243;50.888;4.724;2023-03-01T06:17:39;-2.20;99.90
25302;DHT22;13243;50.888;4.724;2023-03-01T06:22:42;-2.10;99.90
25302;DHT22;13243;50.888;4.724;2023-03-01T06:27:45;-2.10;99.90
25302;DHT22;13243;50.888;4.724;2023-03-01T06:32:47;-2.20;99.90
25302;DHT22;13243;50.888;4.724;2023-03-01T06:37:50;-2.20;99.90
25302;DHT22;13243;50.888;4.724;2023-03-01T06:42:52;-2.10;99.90
25302;DHT22;13243;50.888;4.724;2023-03-01T06:48:02;-2.10;99.90
25302;DHT22;13243;50.888;4.724;2023-03-01T06:53:05;-2.10;99.90
25302;DHT22;13243;50.888;4.724;2023-03-01T06:58:06;-2.10;99.90
25302;DHT22;13243;50.888;4.724;2023-03-01T07:03:08;-2.10;99.90
25302;DHT22;13243;50.888;4.724;2023-03-01T07:08:10;-2.00;99.90
25302;DHT22;13243;50.888;4.724;2023-03-01T07:13:12;-1.90;99.90
25302;DHT22;13243;50.888;4.724;2023-03-01T07:18:14;-1.80;99.90
25302;DHT22;13243;50.888;4.724;2023-03-01T07:23:16;-1.60;99.90
25302;DHT22;13243;50.888;4.724;2023-03-01T07:28:18;-1.50;99.90
25302;DHT22;13243;50.888;4.724;2023-03-01T07:33:20;-1.20;99.90
25302;DHT22;13243;50.888;4.724;2023-03-01T07:38:22;-1.10;99.90
25302;DHT22;13243;50.888;4.724;2023-03-01T07:43:24;-1.00;99.90
25302;DHT22;13243;50.888;4.724;2023-03-01T07:48:26;-0.80;99.90
25302;DHT22;13243;50.888;4.724;2023-03-01T07:53:29;-0.50;99.90
25302;DHT22;13243;50.888;4.724;2023-03-01T07:58:36;-0.20;99.90
25302;DHT22;13243;50.888;4.724;2023-03-01T08:03:38;0.00;99.90
25302;DHT22;13243;50.888;4.724;2023-03-01T08:08:40;0.00;99.90
25302;DHT22;13243;50.888;4.724;2023-03-01T08:13:43;0.20;99.90
25302;DHT22;13243;50.888;4.724;2023-03-01T08:18:45;0.30;99.90
25302;DHT22;13243;50.888;4.724;2023-03-01T08:23:46;0.30;99.90
25302;DHT22;13243;50.888;4.724;2023-03-01T08:28:49;0.40;99.90
25302;DHT22;13243;50.888;4.724;2023-03-01T08:33:55;0.70;99.90
25302;DHT22;13243;50.888;4.724;2023-03-01T08:38:57;0.70;99.90
25302;DHT22;13243;50.888;4.724;2023-03-01T08:43:59;0.80;99.90
25302;DHT22;13243;50.888;4.724;2023-03-01T08:49:06;0.80;99.90
25302;DHT22;13243;50.888;4.724;2023-03-01T08:54:14;1.00;99.90
25302;DHT22;13243;50.888;4.724;2023-03-01T08:59:17;1.30;99.90
25302;DHT22;13243;50.888;4.724;2023-03-01T09:04:19;1.30;99.90
25302;DHT22;13243;50.888;4.724;2023-03-01T09:09:21;1.70;99.90
25302;DHT22;13243;50.888;4.724;2023-03-01T09:14:22;1.80;99.90
25302;DHT22;13243;50.888;4.724;2023-03-01T09:19:24;1.90;99.90
25302;DHT22;13243;50.888;4.724;2023-03-01T09:24:28;2.00;99.90
25302;DHT22;13243;50.888;4.724;2023-03-01T09:29:29;2.10;99.90
25302;DHT22;13243;50.888;4.724;2023-03-01T09:34:31;2.40;99.90
25302;DHT22;13243;50.888;4.724;2023-03-01T09:39:53;2.60;99.90
25302;DHT22;13243;50.888;4.724;2023-03-01T09:45:04;2.80;99.90
25302;DHT22;13243;50.888;4.724;2023-03-01T09:50:18;3.00;99.90
25302;DHT22;13243;50.888;4.724;2023-03-01T09:55:31;3.10;99.90
25302;DHT22;13243;50.888;4.724;2023-03-01T10:00:43;3.40;99.90
25302;DHT22;13243;50.888;4.724;2023-03-01T10:11:31;3.90;99.90
25302;DHT22;13243;50.888;4.724;2023-03-01T10:16:48;4.20;99.90
25302;DHT22;13243;50.888;4.724;2023-03-01T10:21:51;4.40;99.90
25302;DHT22;13243;50.888;4.724;2023-03-01T10:27:01;4.50;99.90
25302;DHT22;13243;50.888;4.724;2023-03-01T10:32:06;4.60;99.90
25302;DHT22;13243;50.888;4.724;2023-03-01T10:37:11;4.80;99.90
25302;DHT22;13243;50.888;4.724;2023-03-01T10:42:26;4.80;99.90
25302;DHT22;13243;50.888;4.724;2023-03-01T10:47:29;5.00;99.90
25302;DHT22;13243;50.888;4.724;2023-03-01T10:52:40;5.20;99.90
25302;DHT22;13243;50.888;4.724;2023-03-01T10:57:42;5.40;99.90
25302;DHT22;13243;50.888;4.724;2023-03-01T11:02:48;5.40;99.90
25302;DHT22;13243;50.888;4.724;2023-03-01T11:07:59;5.70;99.90
25302;DHT22;13243;50.888;4.724;2023-03-01T11:13:15;5.80;99.90
25302;DHT22;13243;50.888;4.724;2023-03-01T11:18:22;5.80;99.90
25302;DHT22;13243;50.888;4.724;2023-03-01T11:23:43;5.90;99.90
25302;DHT22;13243;50.888;4.724;2023-03-01T11:28:55;6.10;99.90
25302;DHT22;13243;50.888;4.724;2023-03-01T11:34:13;6.20;99.90
25302;DHT22;13243;50.888;4.724;2023-03-01T11:39:38;6.60;99.90
25302;DHT22;13243;50.888;4.724;2023-03-01T11:44:42;6.60;99.90
25302;DHT22;13243;50.888;4.724;2023-03-01T11:50:14;6.60;99.90
25302;DHT22;13243;50.888;4.724;2023-03-01T11:55:36;6.70;99.90
25302;DHT22;13243;50.888;4.724;2023-03-01T12:01:59;6.90;99.90
25302;DHT22;13243;50.888;4.724;2023-03-01T12:06:27;6.80;99.90
25302;DHT22;13243;50.888;4.724;2023-03-01T12:22:09;7.30;99.90
25302;DHT22;13243;50.888;4.724;2023-03-01T12:53:25;7.70;99.90
25302;DHT22;13243;50.888;4.724;2023-03-01T12:58:39;7.90;99.90
25302;DHT22;13243;50.888;4.724;2023-03-01T13:14:44;8.40;99.90
25302;DHT22;13243;50.888;4.724;2023-03-01T13:19:57;8.30;99.90
25302;DHT22;13243;50.888;4.724;2023-03-01T13:25:19;8.40;99.90
25302;DHT22;13243;50.888;4.724;2023-03-01T13:35:43;8.90;99.90
25302;DHT22;13243;50.888;4.724;2023-03-01T13:45:53;9.30;99.90
25302;DHT22;13243;50.888;4.724;2023-03-01T13:51:02;9.40;99.90
25302;DHT22;13243;50.888;4.724;2023-03-01T13:56:17;9.60;99.90
25302;DHT22;13243;50.888;4.724;2023-03-01T14:01:32;9.30;99.90
25302;DHT22;13243;50.888;4.724;2023-03-01T14:06:35;9.90;99.90
25302;DHT22;13243;50.888;4.724;2023-03-01T14:22:30;10.40;99.90
25302;DHT22;13243;50.888;4.724;2023-03-01T14:27:36;10.10;99.90
25302;DHT22;13243;50.888;4.724;2023-03-01T14:32:41;10.60;99.90
25302;DHT22;13243;50.888;4.724;2023-03-01T14:37:42;10.80;99.90
25302;DHT22;13243;50.888;4.724;2023-03-01T14:42:44;10.50;99.90
25302;DHT22;13243;50.888;4.724;2023-03-01T14:47:46;11.10;99.90
25302;DHT22;13243;50.888;4.724;2023-03-01T14:52:51;11.10;99.90
25302;DHT22;13243;50.888;4.724;2023-03-01T14:57:53;11.30;99.90
25302;DHT22;13243;50.888;4.724;2023-03-01T15:03:00;11.20;99.90
25302;DHT22;13243;50.888;4.724;2023-03-01T15:08:03;11.50;99.90
25302;DHT22;13243;50.888;4.724;2023-03-01T15:13:23;10.90;99.90
25302;DHT22;13243;50.888;4.724;2023-03-01T15:18:27;11.80;99.90
25302;DHT22;13243;50.888;4.724;2023-03-01T15:23:30;11.80;99.90
25302;DHT22;13243;50.888;4.724;2023-03-01T15:28:34;12.20;99.90
25302;DHT22;13243;50.888;4.724;2023-03-01T15:33:39;13.00;99.90
25302;DHT22;13243;50.888;4.724;2023-03-01T15:38:53;12.80;99.90
25302;DHT22;13243;50.888;4.724;2023-03-01T15:43:56;12.60;99.90
25302;DHT22;13243;50.888;4.724;2023-03-01T15:49:01;12.90;99.90
25302;DHT22;13243;50.888;4.724;2023-03-01T15:54:17;12.70;99.90
25302;DHT22;13243;50.888;4.724;2023-03-01T15:59:20;12.80;99.90
25302;DHT22;13243;50.888;4.724;2023-03-01T16:04:23;12.30;99.90
25302;DHT22;13243;50.888;4.724;2023-03-01T16:09:26;12.20;99.90
25302;DHT22;13243;50.888;4.724;2023-03-01T16:14:28;12.50;99.90
25302;DHT22;13243;50.888;4.724;2023-03-01T16:19:30;12.70;99.90
25302;DHT22;13243;50.888;4.724;2023-03-01T16:24:31;12.40;99.90
25302;DHT22;13243;50.888;4.724;2023-03-01T16:29:33;12.70;99.90
25302;DHT22;13243;50.888;4.724;2023-03-01T16:34:35;12.20;99.90
25302;DHT22;13243;50.888;4.724;2023-03-01T16:39:38;12.20;99.90
25302;DHT22;13243;50.888;4.724;2023-03-01T16:44:40;11.90;99.90
25302;DHT22;13243;50.888;4.724;2023-03-01T16:49:41;10.90;99.90
25302;DHT22;13243;50.888;4.724;2023-03-01T16:54:43;10.00;99.90
25302;DHT22;13243;50.888;4.724;2023-03-01T16:59:45;9.30;99.90
25302;DHT22;13243;50.888;4.724;2023-03-01T17:04:54;9.00;99.90
25302;DHT22;13243;50.888;4.724;2023-03-01T17:09:56;8.70;99.90
25302;DHT22;13243;50.888;4.724;2023-03-01T17:14:58;8.40;99.90
25302;DHT22;13243;50.888;4.724;2023-03-01T17:20:00;8.30;99.90
25302;DHT22;13243;50.888;4.724;2023-03-01T17:25:08;7.80;99.90
25302;DHT22;13243;50.888;4.724;2023-03-01T17:30:13;7.70;99.90
25302;DHT22;13243;50.888;4.724;2023-03-01T17:35:15;7.50;99.90
25302;DHT22;13243;50.888;4.724;2023-03-01T17:40:17;7.30;99.90
25302;DHT22;13243;50.888;4.724;2023-03-01T17:45:19;7.00;99.90
25302;DHT22;13243;50.888;4.724;2023-03-01T17:50:21;7.10;99.90
25302;DHT22;13243;50.888;4.724;2023-03-01T17:55:23;6.80;99.90
25302;DHT22;13243;50.888;4.724;2023-03-01T18:00:25;6.60;99.90
25302;DHT22;13243;50.888;4.724;2023-03-01T18:05:30;6.60;99.90
25302;DHT22;13243;50.888;4.724;2023-03-01T18:10:32;6.30;99.90
25302;DHT22;13243;50.888;4.724;2023-03-01T18:15:37;6.30;99.90
25302;DHT22;13243;50.888;4.724;2023-03-01T18:20:38;6.10;99.90
25302;DHT22;13243;50.888;4.724;2023-03-01T18:25:40;6.00;99.90
25302;DHT22;13243;50.888;4.724;2023-03-01T18:30:42;5.80;99.90
25302;DHT22;13243;50.888;4.724;2023-03-01T18:35:44;5.80;99.90
25302;DHT22;13243;50.888;4.724;2023-03-01T18:40:46;5.60;99.90
25302;DHT22;13243;50.888;4.724;2023-03-01T18:45:48;5.30;99.90
25302;DHT22;13243;50.888;4.724;2023-03-01T18:50:50;5.10;99.90
25302;DHT22;13243;50.888;4.724;2023-03-01T18:55:58;5.20;99.90
25302;DHT22;13243;50.888;4.724;2023-03-01T19:01:00;5.10;99.90
25302;DHT22;13243;50.888;4.724;2023-03-01T19:06:04;5.00;99.90
25302;DHT22;13243;50.888;4.724;2023-03-01T19:11:07;4.90;99.90
25302;DHT22;13243;50.888;4.724;2023-03-01T19:16:13;4.90;99.90
25302;DHT22;13243;50.888;4.724;2023-03-01T19:21:17;4.90;99.90
25302;DHT22;13243;50.888;4.724;2023-03-01T19:26:21;5.00;99.90
25302;DHT22;13243;50.888;4.724;2023-03-01T19:31:27;4.90;99.90
25302;DHT22;13243;50.888;4.724;2023-03-01T19:36:29;5.00;99.90
25302;DHT22;13243;50.888;4.724;2023-03-01T19:41:35;4.90;99.90
25302;DHT22;13243;50.888;4.724;2023-03-01T19:46:37;4.80;99.90
25302;DHT22;13243;50.888;4.724;2023-03-01T19:51:39;4.80;99.90
25302;DHT22;13243;50.888;4.724;2023-03-01T19:56:41;4.50;99.90
25302;DHT22;13243;50.888;4.724;2023-03-01T20:01:43;4.40;99.90
25302;DHT22;13243;50.888;4.724;2023-03-01T20:06:46;4.40;99.90
25302;DHT22;13243;50.888;4.724;2023-03-01T20:11:49;4.20;99.90
25302;DHT22;13243;50.888;4.724;2023-03-01T20:16:51;4.20;99.90
25302;DHT22;13243;50.888;4.724;2023-03-01T20:21:53;4.10;99.90
25302;DHT22;13243;50.888;4.724;2023-03-01T20:26:55;4.00;99.90
25302;DHT22;13243;50.888;4.724;2023-03-01T20:31:57;4.00;99.90
25302;DHT22;13243;50.888;4.724;2023-03-01T20:36:59;4.10;99.90
25302;DHT22;13243;50.888;4.724;2023-03-01T20:42:01;3.90;99.90
25302;DHT22;13243;50.888;4.724;2023-03-01T20:47:03;3.90;99.90
25302;DHT22;13243;50.888;4.724;2023-03-01T20:52:05;3.80;99.90
25302;DHT22;13243;50.888;4.724;2023-03-01T20:57:07;3.70;99.90
25302;DHT22;13243;50.888;4.724;2023-03-01T21:02:09;3.60;99.90
25302;DHT22;13243;50.888;4.724;2023-03-01T21:07:12;3.60;99.90
25302;DHT22;13243;50.888;4.724;2023-03-01T21:12:13;3.50;99.90
25302;DHT22;13243;50.888;4.724;2023-03-01T21:17:16;3.50;99.90
25302;DHT22;13243;50.888;4.724;2023-03-01T21:22:18;3.60;99.90
25302;DHT22;13243;50.888;4.724;2023-03-01T21:27:20;3.50;99.90
25302;DHT22;13243;50.888;4.724;2023-03-01T21:32:22;3.40;99.90
25302;DHT22;13243;50.888;4.724;2023-03-01T21:37:24;3.40;99.90
25302;DHT22;13243;50.888;4.724;2023-03-01T21:42:28;3.40;99.90
25302;DHT22;13243;50.888;4.724;2023-03-01T21:47:32;3.40;99.90
25302;DHT22;13243;50.888;4.724;2023-03-01T21:52:34;3.40;99.90
25302;DHT22;13243;50.888;4.724;2023-03-01T21:57:36;3.10;99.90
25302;DHT22;13243;50.888;4.724;2023-03-01T22:02:44;3.00;99.90
25302;DHT22;13243;50.888;4.724;2023-03-01T22:07:46;3.10;99.90
25302;DHT22;13243;50.888;4.724;2023-03-01T22:12:48;3.00;99.90
25302;DHT22;13243;50.888;4.724;2023-03-01T22:17:50;2.80;99.90
25302;DHT22;13243;50.888;4.724;2023-03-01T22:22:51;2.90;99.90
25302;DHT22;13243;50.888;4.724;2023-03-01T22:27:53;2.60;99.90
25302;DHT22;13243;50.888;4.724;2023-03-01T22:32:55;2.50;99.90
25302;DHT22;13243;50.888;4.724;2023-03-01T22:37:57;2.20;99.90
25302;DHT22;13243;50.888;4.724;2023-03-01T22:42:59;2.30;99.90
25302;DHT22;13243;50.888;4.724;2023-03-01T22:48:01;2.40;99.90
25302;DHT22;13243;50.888;4.724;2023-03-01T22:53:05;2.20;99.90
25302;DHT22;13243;50.888;4.724;2023-03-01T22:58:07;1.80;99.90
25302;DHT22;13243;50.888;4.724;2023-03-01T23:03:09;1.90;99.90
25302;DHT22;13243;50.888;4.724;2023-03-01T23:08:11;1.70;99.90
25302;DHT22;13243;50.888;4.724;2023-03-01T23:13:13;1.60;99.90
25302;DHT22;13243;50.888;4.724;2023-03-01T23:18:15;1.50;99.90
25302;DHT22;13243;50.888;4.724;2023-03-01T23:23:17;1.50;99.90
25302;DHT22;13243;50.888;4.724;2023-03-01T23:28:19;1.50;99.90
25302;DHT22;13243;50.888;4.724;2023-03-01T23:33:21;1.60;99.90
25302;DHT22;13243;50.888;4.724;2023-03-01T23:38:22;1.30;99.90
25302;DHT22;13243;50.888;4.724;2023-03-01T23:43:24;1.30;99.90
25302;DHT22;13243;50.888;4.724;2023-03-01T23:48:26;1.20;99.90
25302;DHT22;13243;50.888;4.724;2023-03-01T23:53:28;1.40;99.90
25302;DHT22;13243;50.888;4.724;2023-03-01T23:58:30;1.60;99.90
